Tiempo atmosférico en la estación meteorológica de Logroño Aeropuerto, La Rioja (353 m.)



Fecha
DESCASC
Temp. máxima en grados centígrados (hora)
DESCASC
Temp. mínima en grados centígrados (hora)
DESCASC
Temp. media en grados centígrados
DESCASC
Racha de viento máxima en m/sg (hora)
DESCASC
Velocidad máxima media en intervalos de 10 minutos(hora)
DESCASC
Precipitaciones diarias en mm
DESCASC
Precipitaciones de 00:00 a 06:00 en mm
DESCASC
Precipitaciones de 06:00 a 12:00 en mm
DESCASC
Precipitaciones de 12:00 a 18:00 en mm
DESCASC
Precipitaciones de 18:00 a 24:00 en mm
DESCASC
21-03-2019 16.7 (17:50) 2.3 (07:20) 9.5 5.83 (09:30) 3.89 (09:30) 0 0 0 0 0
20-03-2019 15.1 (16:30) 4.5 (07:10) 9.8 9.72 (14:10) 7.22 (14:10) 0 0 0 0 0
19-03-2019 13.7 (15:50) 5.9 (23:59) 9.8 9.72 (11:10) 6.39 (14:20) 0.2 0 0 0.2 0
18-03-2019 12.9 (16:00) 4.6 (04:30) 8.7 8.89 (13:50) 5.83 (14:10) 0 0 0 0 0
17-03-2019 14.2 (12:00) 4.3 (00:00) 9.3 9.17 (12:30) 5.28 (12:00) 0 0 0 0 0
16-03-2019 22.5 (18:20) 1.1 (00:00) 11.8 5 (14:50) 3.61 (14:50) 0 0 0 0 0
15-03-2019 20.5 (17:20) 3.1 (00:00) 11.8 7.22 (10:00) 5 (10:00) 0 0 0 0 0
14-03-2019 16.6 (16:40) 6.4 (00:00) 11.5 9.17 (10:00) 5.83 (03:20) 0 0 0 0 0
13-03-2019 12.8 (14:40) 6.1 (00:00) 9.5 12.5 (17:10) 6.39 (17:10) 0 0 0 0 0
12-03-2019 17.3 (16:50) -0.8 (-00:0) 8.2 6.67 (13:00) 3.89 (12:20) 0 0 0 0 0
11-03-2019 16.1 (17:20) 4.4 (00:00) 10.3 8.33 (11:30) 4.17 (11:30) 0 0 0 0 0
10-03-2019 18.4 (16:00) 3.4 (00:00) 10.9 7.78 (17:50) 4.17 (17:30) 0 0 0 0 0
09-03-2019 20.4 (16:10) 3.3 (00:00) 11.8 7.78 (09:50) 4.17 (10:30) 0 0 0 0 0
08-03-2019 15.9 (15:20) 6.1 (00:00) 11 8.33 (07:40) 4.17 (12:30) 0 0 0 0 0
07-03-2019 14.7 (15:30) 5.1 (00:00) 9.9 10.83 (00:50) 6.11 (00:40) 0 0 0 0 0
06-03-2019 18.7 (15:00) 8.9 (00:00) 13.8 16.11 (16:00) 9.72 (06:00) 3.1 0 0 3.1 0
05-03-2019 18.9 (17:20) 2 (00:00) 10.4 9.72 (21:20) 6.94 (21:20) 0 0 0 0 0
04-03-2019 17.4 (14:10) 4.3 (00:00) 10.8 14.44 (12:30) 7.5 (12:20) 0 0 0 0 0
03-03-2019 16.7 (16:10) 1.6 (00:00) 9.2 5 (14:50) 3.89 (15:50) 0 0 0 0 0
02-03-2019 20.8 (17:10) 6.4 (00:00) 13.6 8.33 (14:10) 5.83 (13:30) 0 0 0 0 0
01-03-2019 19.1 (16:30) 3.6 (00:00) 11.4 7.78 (14:10) 5 (13:00) 0 0 0 0 0
28-02-2019 -- (--) -- (--) -- -- (--) -- (--) -- 0 -- 0 0
27-02-2019 23.1 (17:40) 1.1 (00:00) 12.1 -- (--) -- (--) 0 0 0 0 0
26-02-2019 19.9 (16:50) -0.1 (00:00) 9.9 10.83 (15:30) 8.33 (15:30) 0 0 0 0 0
25-02-2019 18.3 (16:30) 1.6 (00:00) 9.9 4.72 (13:30) 3.33 (17:30) 0 0 0 0 0
24-02-2019 17.9 (16:50) 2.4 (00:00) 10.1 6.67 (12:20) 5.28 (12:40) 0 0 0 0 0
23-02-2019 21.5 (14:50) 6.1 (00:00) 13.8 10.83 (12:20) 7.5 (12:30) 0 0 0 0 0
22-02-2019 20.8 (15:50) -0.4 (00:00) 10.2 4.72 (16:20) 2.78 (16:20) 0 0 0 0 0
21-02-2019 15.1 (16:40) -2.1 (-00:0) 6.5 7.22 (12:40) 5 (12:40) 0 0 0 0 0
20-02-2019 10 (16:20) -0.6 (-00:0) 4.7 5.83 (13:40) 4.44 (14:20) 0 0 0 0 0

Gráficas

Temp. máximas Temp. mínimas Temp. medias Precipitaciones Rachas de viento máximas Velocidades máximas media en intervalos de 10 minutos

Datos horarios

Fecha y hora oficial Temperatura (ºC) Velocidad del viento (km/h) Dirección del viento Racha (km/h) Dirección de racha Precipitación (mm) Presión (hPa) Tendencia (hPa) Humedad (%)
2019-03-21 23:00:00 5 3 Sur 5 Sur 0 984.6 1.2 71
2019-03-21 22:00:00 5.6 5 Sudoeste 11 Norte 0 984.3 1.3 65
2019-03-21 21:00:00 8.1 4 Noroeste 9 Norte 0 983.9 1.1 56
2019-03-21 20:00:00 10.8 3 Sudeste 11 Este 0 983.4 0.3 46
2019-03-21 19:00:00 14.3 11 Este 13 Este 0 983 -0.5 33
2019-03-21 18:00:00 16.4 6 Este 13 Este 0 982.8 -1.2 28
2019-03-21 17:00:00 16.3 6 Nordeste 15 Sudeste 0 983.1 -1.8 30
2019-03-21 16:00:00 15.6 4 Noroeste 15 Norte 0 983.5 -2.1 35
2019-03-21 15:00:00 15.3 8 Oeste 15 Oeste 0 984 -2.1 39
2019-03-21 14:00:00 14.5 5 Sur 17 Sur 0 984.9 -1.9 41
2019-03-21 13:00:00 13.4 11 Oeste 21 Oeste 0 985.6 -1.4 47
2019-03-21 12:00:00 12.4 12 Oeste 21 Oeste 0 986.1 -1.2 50
2019-03-21 11:00:00 10.8 10 Oeste 21 Oeste 0 986.8 -0.4 55
2019-03-21 10:00:00 7.7 11 Oeste 21 Oeste 0 987 0.2 65
2019-03-21 09:00:00 5.2 12 Oeste 18 Oeste 0 987.3 0.7 72
2019-03-21 08:00:00 3.1 12 Oeste 15 Oeste 0 987.2 0.7 79
2019-03-21 07:00:00 2.4 10 Oeste 17 Oeste 0 986.8 0.5 80
2019-03-21 06:00:00 2.8 9 Oeste 15 Oeste 0 986.6 0 77
2019-03-21 05:00:00 2.8 10 Oeste 17 Oeste 0 986.5 -0.7 77
2019-03-21 04:00:00 3.3 9 Oeste 15 Oeste 0 986.3 -1.2 77
2019-03-21 03:00:00 3.7 10 Oeste 18 Oeste 0 986.6 -1.1 73
2019-03-21 02:00:00 4.1 12 Oeste 17 Oeste 0 987.2 -0.6 70
2019-03-21 01:00:00 4.9 10 Oeste 17 Sudoeste 0 987.5 -0.3 69
2019-03-21 00:00:00 5.9 11 Oeste 18 Oeste 0 987.7 0.2 64
2019-03-20 23:00:00 6.7 9 Oeste 13 Sudoeste 0 987.8 1 62
2019-03-20 22:00:00 7.3 9 Sudoeste 13 Oeste 0 987.8 1.8 59
2019-03-20 21:00:00 7.4 5 Oeste 17 Norte 0 987.5 2.3 58
2019-03-20 20:00:00 8.6 9 Norte 18 Norte 0 986.8 1.9 53
2019-03-20 19:00:00 11.3 12 Norte 28 Noroeste 0 986 1.2 42
2019-03-20 18:00:00 13.6 11 Noroeste 28 Norte 0 985.2 -0.2 34
2019-03-20 17:00:00 14.5 18 Norte 26 Norte 0 984.9 -1.2 29
2019-03-20 16:00:00 14.9 17 Norte 32 Norte 0 984.8 -2.1 28
2019-03-20 15:00:00 14.7 14 Norte 35 Norte 0 985.4 -2.1 30
2019-03-20 14:00:00 14.7 17 Nordeste 32 Norte 0 986.1 -1.6 30
2019-03-20 13:00:00 14 19 Norte 30 Nordeste 0 986.9 -1 32
2019-03-20 12:00:00 12.9 16 Norte 32 Norte 0 987.5 -0.2 34
2019-03-20 11:00:00 11.4 11 Oeste 22 Oeste 0 987.7 0.4 48
2019-03-20 10:00:00 9.7 12 Oeste 22 Noroeste 0 987.9 1 55
2019-03-20 09:00:00 8.4 11 Oeste 18 Oeste 0 987.7 0.9 68
2019-03-20 08:00:00 5.6 6 Oeste 13 Oeste 0 987.3 0.5 78
2019-03-20 07:00:00 4.9 4 Oeste 17 Sudoeste 0 986.9 0.2 79
2019-03-20 06:00:00 5.9 8 Oeste 13 Oeste 0 986.8 -0.3 77
2019-03-20 05:00:00 6.2 9 Oeste 13 Sudoeste 0 986.8 -0.3 77
2019-03-20 04:00:00 5.7 3 Oeste 9 Oeste 0 986.7 -0.7 79
2019-03-20 03:00:00 5.9 3 Sur 21 Sudoeste 0 987.1 -0.5 76
2019-03-20 02:00:00 6.1 12 Sudoeste 21 Noroeste 0 987.1 -0.2 72
2019-03-20 01:00:00 6.4 12 Noroeste 21 Oeste 0 987.4 0.3 71
2019-03-20 00:00:00 6.1 5 Oeste 17 Noroeste 0 987.6 0.9 71
2019-03-19 23:00:00 7.1 10 Oeste 17 Oeste 0 987.3 1 66
2019-03-19 22:00:00 7.4 8 Sudoeste 13 Oeste 0 987.1 1.2 66
2019-03-19 21:00:00 7.5 10 Oeste 17 Oeste 0 986.7 1.7 65
2019-03-19 20:00:00 8.3 10 Oeste 22 Oeste 0 986.3 1.6 62
2019-03-19 19:00:00 9.7 12 Noroeste 22 Noroeste 0 985.9 1.5 58
2019-03-19 18:00:00 10.1 14 Norte 28 Norte 0 985 0.6 57
2019-03-19 17:00:00 11.1 14 Noroeste 30 Norte 0 984.7 0.1 54
2019-03-19 16:00:00 12.1 13 Noroeste 26 Norte 0 984.4 0.1 55
2019-03-19 15:00:00 12 13 Noroeste 33 Norte 0 984.4 0.2 58
2019-03-19 14:00:00 12.1 15 Norte 26 Norte 0 984.6 0.7 56
2019-03-19 13:00:00 10.9 4 Noroeste 24 Oeste 0.2 984.3 0.5 69
2019-03-19 12:00:00 10.2 15 Oeste 35 Oeste 0 984.2 0.5 71
2019-03-19 11:00:00 9.8 21 Oeste 32 Sudoeste 0 983.9 0.6 71
2019-03-19 10:00:00 8.2 18 Oeste 32 Oeste 0 983.8 0.7 78
2019-03-19 09:00:00 7.2 13 Oeste 26 Oeste 0 983.7 0.8 81
2019-03-19 08:00:00 6.5 14 Oeste 24 Sudoeste 0 983.3 0.2 85
2019-03-19 07:00:00 6.5 12 Oeste 21 Oeste 0 983.1 -0.1 84
2019-03-19 06:00:00 6.7 12 Oeste 21 Oeste 0 982.9 -0.7 81
2019-03-19 05:00:00 6.7 6 Oeste 18 Sudoeste 0 983.1 -1 81
2019-03-19 04:00:00 6.8 9 Oeste 17 Oeste 0 983.2 -1.1 81
2019-03-19 03:00:00 7.1 11 Oeste 18 Oeste 0 983.6 -1.2 76
2019-03-19 02:00:00 7 9 Oeste 15 Oeste 0 984.1 -0.9 78
2019-03-19 01:00:00 7.3 9 Oeste 15 Oeste 0 984.3 -0.7 73
2019-03-19 00:00:00 7.7 8 Oeste 22 Oeste 0 984.8 0 70
2019-03-18 23:00:00 8.2 9 Oeste 17 Oeste 0 985 0.4 65
2019-03-18 22:00:00 8.1 6 Oeste 21 Noroeste 0 985 0.9 64
2019-03-18 21:00:00 8.2 14 Oeste 26 Noroeste 0 984.8 1 62
2019-03-18 20:00:00 9.1 10 Noroeste 26 Noroeste 0 984.6 1.2 60
2019-03-18 19:00:00 9.8 11 Noroeste 22 Noroeste 0 984.1 0.8 55
2019-03-18 18:00:00 11.2 12 Noroeste 24 Noroeste 0 983.8 0.1 51
2019-03-18 17:00:00 11.6 13 Noroeste 24 Noroeste 0 983.4 -0.9 48
2019-03-18 16:00:00 12.8 16 Oeste 32 Sudoeste 0 983.3 -1.8 45
2019-03-18 15:00:00 11.4 17 Oeste 32 Oeste 0 983.7 -1.5 50
2019-03-18 14:00:00 11.4 18 Oeste 32 Oeste 0 984.3 -1.1 54
2019-03-18 13:00:00 9.8 12 Oeste 21 Oeste 0 985.1 0.1 61
2019-03-18 12:00:00 9.3 15 Oeste 24 Oeste 0 985.2 0.9 58
2019-03-18 11:00:00 8.8 15 Oeste 21 Oeste 0 985.4 1.9 61
2019-03-18 10:00:00 8.3 12 Oeste 22 Sudoeste 0 985 1.6 64
2019-03-18 09:00:00 7.9 13 Oeste 26 Oeste 0 984.3 1.3 64
2019-03-18 08:00:00 5.4 9 Oeste 21 Oeste 0 983.5 0.7 74
2019-03-18 07:00:00 4.8 8 Oeste 17 Oeste 0 983.4 0.7 77
2019-03-18 06:00:00 5.3 12 Oeste 18 Oeste 0 983 0.3 74
2019-03-18 05:00:00 5.8 10 Oeste 17 Oeste 0 982.8 -0.2 70
2019-03-18 04:00:00 4.9 5 Noroeste 15 Oeste 0 982.7 -0.5 75
2019-03-18 03:00:00 5.7 10 Oeste 21 Oeste 0 982.7 -0.9 70
2019-03-18 02:00:00 6.2 12 Oeste 21 Oeste 0 983 -0.3 69
2019-03-18 01:00:00 6.5 11 Oeste 24 Noroeste 0 983.2 0.1 67
2019-03-18 00:00:00 6.9 8 Oeste 22 Noroeste 0 983.6 1.2 66
2019-03-17 23:00:00 6.9 13 Oeste 22 Oeste 0 983.3 1.8 63
2019-03-17 22:00:00 7.4 14 Oeste 26 Oeste 0 983.1 2.4 62
2019-03-17 21:00:00 7.3 9 Oeste 22 Oeste 0 982.4 2.4 68
2019-03-17 20:00:00 8.2 12 Oeste 32 Noroeste 0 981.5 2.1 65
2019-03-17 19:00:00 9.3 11 Oeste 21 Oeste 0 980.7 1.5 61
2019-03-17 18:00:00 9.8 11 Noroeste 30 Norte 0 980 1.1 60
2019-03-17 17:00:00 10.9 17 Noroeste 28 Noroeste 0 979.4 0.8 60
2019-03-17 16:00:00 10.9 10 Oeste 26 Oeste 0 979.2 1 57
2019-03-17 15:00:00 10.4 15 Oeste 28 Noroeste 0 978.9 1.3 62
2019-03-17 14:00:00 12.6 12 Noroeste 32 Noroeste 0 978.6 1.4 61
2019-03-17 13:00:00 12.4 13 Noroeste 33 Noroeste 0 978.2 1.6 62
2019-03-17 12:00:00 13.9 19 Noroeste 30 Noroeste 0 977.6 1.6 57
2019-03-17 11:00:00 13.3 12 Oeste 24 Oeste 0 977.2 1.9 57
2019-03-17 10:00:00 13.5 9 Oeste 26 Sudoeste 0 976.6 3.4 53
2019-03-17 09:00:00 11.7 11 Oeste 26 Oeste 0 976 3.4 62
2019-03-17 08:00:00 9.7 10 Oeste 21 Oeste 0 975.3 3.3 68
2019-03-17 07:00:00 4.5 5 Nordeste 11 Noroeste 0 973.2 1 81
2019-03-17 06:00:00 6.3 7 Oeste 13 Oeste 0 972.6 0.1 78
2019-03-17 05:00:00 5.5 9 Oeste 15 Noroeste 0 972 -0.7 85
2019-03-17 04:00:00 5.6 4 Sudoeste 8 Sudoeste 0 972.2 -0.8 86
2019-03-17 03:00:00 6.7 0 Calma 13 Oeste 0 972.5 -1 79
2019-03-17 02:00:00 9.5 9 Oeste 13 Sudoeste 0 972.7 -0.8 68
2019-03-17 01:00:00 7.9 4 Oeste 13 Sudoeste 0 973 -0.8 77
2019-03-17 00:00:00 7.9 3 Noroeste 9 Oeste 0 973.5 -0.2 81
2019-03-16 23:00:00 9 3 Oeste 13 Oeste 0 973.5 0.2 73
2019-03-16 22:00:00 10.1 8 Sudoeste 9 Oeste 0 973.8 0.6 73
2019-03-16 21:00:00 12 0 Calma 5 Noroeste 0 973.7 0.3 65
2019-03-16 20:00:00 14.8 4 Noroeste 8 Noroeste 0 973.3 -0.5 58
2019-03-16 19:00:00 20.1 3 Sudeste 5 Sudeste 0 973.2 -1.3 34
2019-03-16 18:00:00 22.2 4 Este 13 Este 0 973.4 -2.2 30
2019-03-16 17:00:00 22 7 Este 15 Este 0 973.8 -3.3 30
2019-03-16 16:00:00 21.2 11 Este 17 Este 0 974.5 -3.9 32
2019-03-16 15:00:00 20.4 12 Este 18 Este 0 975.6 -3.5 31
2019-03-16 14:00:00 18.9 10 Este 17 Este 0 977.1 -2.7 32
2019-03-16 13:00:00 17.4 8 Nordeste 13 Este 0 978.4 -1.9 35
2019-03-16 12:00:00 15 5 Nordeste 11 Este 0 979.1 -1.5 45
2019-03-16 11:00:00 12.6 3 Sudeste 9 Sudeste 0 979.8 -0.6 59
2019-03-16 10:00:00 9.5 0 Calma 8 Nordeste 0 980.3 -0.4 70
2019-03-16 09:00:00 5.9 5 Nordeste 8 Este 0 980.6 -0.4 79
2019-03-16 08:00:00 2.6 2 Oeste 5 Oeste 0 980.4 -0.6 94
2019-03-16 07:00:00 1.7 0 Calma 8 Nordeste 0 980.7 -0.4 94
2019-03-16 06:00:00 3.4 6 Sudoeste 13 Oeste 0 981 -1 94
2019-03-16 05:00:00 2.3 8 Oeste 9 Oeste 0 981 -1.7 96
2019-03-16 04:00:00 2.6 -- -- -- -- 0 981.1 -2.1 94
2019-03-16 03:00:00 2.4 3 Este 5 Nordeste 0 982 -1.6 92
2019-03-16 02:00:00 3.3 0 Calma 5 Oeste 0 982.7 -0.9 91
2019-03-16 01:00:00 4.3 0 Calma 8 Oeste 0 983.2 -0.3 86
2019-03-16 00:00:00 5.9 6 Sudoeste 8 Sudoeste 0 983.6 0.5 83
2019-03-15 23:00:00 6.7 2 Norte 13 Este 0 983.6 0.9 79
2019-03-15 22:00:00 6.9 8 Este 11 Sudeste 0 983.5 1.2 73
2019-03-15 21:00:00 10.7 0 Calma 9 Sudoeste 0 983.1 1.1 61
2019-03-15 20:00:00 14.5 6 Oeste 13 Oeste 0 982.7 0.5 47
2019-03-15 19:00:00 17.5 4 Noroeste 15 Norte 0 982.3 -0.3 38
2019-03-15 18:00:00 20.2 8 Sudoeste 13 Noroeste 0 982 -1.1 31
2019-03-15 17:00:00 20.2 12 Oeste 24 Sudoeste 0 982.2 -1.7 31
2019-03-15 16:00:00 19.5 14 Sudoeste 22 Sudoeste 0 982.6 -2.3 33
2019-03-15 15:00:00 18.3 13 Oeste 22 Oeste 0 983.1 -2.5 37
2019-03-15 14:00:00 16.6 11 Oeste 22 Oeste 0 983.9 -2.2 44
2019-03-15 13:00:00 14.5 13 Oeste 24 Sudoeste 0 984.9 -1.7 50
2019-03-15 12:00:00 12.9 13 Oeste 24 Oeste 0 985.6 -0.9 56
2019-03-15 11:00:00 10.8 13 Oeste 24 Sudoeste 0 986.1 -0.6 64
2019-03-15 10:00:00 8.4 18 Oeste 26 Oeste 0 986.6 0 70
2019-03-15 09:00:00 6.2 10 Oeste 15 Oeste 0 986.5 -0.1 79
2019-03-15 08:00:00 4.1 9 Oeste 13 Oeste 0 986.7 0 86
2019-03-15 07:00:00 3.1 8 Oeste 9 Sudoeste 0 986.6 -0.3 90
2019-03-15 06:00:00 3.8 9 Oeste 13 Oeste 0 986.6 -0.8 88
2019-03-15 05:00:00 3.2 7 Oeste 9 Oeste 0 986.7 -0.8 93
2019-03-15 04:00:00 3.7 5 Oeste 9 Oeste 0 986.9 -0.8 91
2019-03-15 03:00:00 4.2 6 Sudoeste 8 Sudoeste 0 987.4 -0.5 90
2019-03-15 02:00:00 4.8 5 Oeste -- -- 0 987.5 -0.1 88
2019-03-15 01:00:00 5.4 5 Oeste 9 Oeste 0 987.7 0 85
2019-03-15 00:00:00 6.5 6 Oeste 9 Sudoeste 0 987.9 0.6 80
2019-03-14 23:00:00 8 7 Sudoeste 13 Sudoeste 0 987.6 0.9 68
2019-03-14 22:00:00 8.7 8 Oeste 22 Oeste 0 987.7 2.1 67
2019-03-14 21:00:00 9 8 Oeste 18 Oeste 0 987.3 2.6 68
2019-03-14 20:00:00 9.7 5 Oeste 15 Norte 0 986.7 2.2 64
2019-03-14 19:00:00 11.6 9 Noroeste 28 Norte 0 985.6 0.8 58
2019-03-14 18:00:00 14.7 14 Norte 24 Norte 0 984.7 -0.9 47
2019-03-14 17:00:00 16.2 11 Noroeste 24 Oeste 0 984.5 -1.9 39
2019-03-14 16:00:00 16.1 13 Oeste 32 Noroeste 0 984.8 -2.7 37
2019-03-14 15:00:00 15.2 12 Noroeste 26 Oeste 0 985.6 -2.6 40
2019-03-14 14:00:00 13.6 16 Oeste 30 Sudoeste 0 986.4 -2.2 42
2019-03-14 13:00:00 12.8 14 Oeste 28 Oeste 0 987.5 -1.4 45
2019-03-14 12:00:00 11.4 18 Oeste 28 Oeste 0 988.2 -0.2 48
2019-03-14 11:00:00 11.2 14 Oeste 33 Noroeste 0 988.6 0.4 49
2019-03-14 10:00:00 10.5 19 Oeste 33 Oeste 0 988.9 0.5 53
2019-03-14 09:00:00 9.2 16 Oeste 28 Oeste 0 988.4 0.2 60
2019-03-14 08:00:00 7.8 15 Oeste 28 Sudoeste 0 988.2 0.6 68
2019-03-14 07:00:00 7.7 17 Oeste 28 Oeste 0 988.4 0.4 69
2019-03-14 06:00:00 8 15 Oeste 28 Oeste 0 988.2 -0.3 67
2019-03-14 05:00:00 7.7 15 Oeste 28 Oeste 0 987.6 -1 68
2019-03-14 04:00:00 7.7 18 Oeste 28 Sudoeste 0 988 -0.8 68
2019-03-14 03:00:00 7.3 17 Oeste 28 Oeste 0 988.5 -0.4 70
2019-03-14 02:00:00 7.4 16 Oeste 30 Sudoeste 0 988.6 0 69
2019-03-14 01:00:00 7.3 16 Oeste 26 Sudoeste 0 988.8 0.3 69
2019-03-14 00:00:00 7.3 12 Oeste 26 Oeste 0 988.9 0.9 69
2019-03-13 23:00:00 7.6 15 Oeste 26 Sudoeste 0 988.6 1 69
2019-03-13 22:00:00 7.8 13 Oeste 26 Oeste 0 988.5 1.2 68
2019-03-13 21:00:00 7.7 16 Oeste 26 Oeste 0 988 1.1 70
2019-03-13 20:00:00 8.1 10 Oeste 30 Oeste 0 987.6 1.3 66
2019-03-13 19:00:00 9 14 Noroeste 30 Norte 0 987.3 1.5 64
2019-03-13 18:00:00 9.7 17 Noroeste 45 Noroeste 0 986.9 1.8 59
2019-03-13 17:00:00 11.3 18 Noroeste 35 Noroeste 0 986.3 0.9 53
2019-03-13 16:00:00 10.4 17 Norte 39 Noroeste 0 985.8 0.1 59
2019-03-13 15:00:00 12.3 22 Oeste 37 Noroeste 0 985.1 -0.7 47
2019-03-13 14:00:00 11.5 21 Oeste 37 Oeste 0 985.4 -0.2 57
2019-03-13 13:00:00 11.2 21 Oeste 35 Oeste 0 985.7 0.2 57
2019-03-13 12:00:00 11.1 21 Oeste 35 Oeste 0 985.8 1 50
2019-03-13 11:00:00 10.6 18 Oeste 32 Oeste 0 985.6 1.3 54
2019-03-13 10:00:00 8.3 17 Oeste 26 Oeste 0 985.5 1.6 63
2019-03-13 09:00:00 7.3 15 Oeste 26 Oeste 0 984.8 1.1 73
2019-03-13 08:00:00 6.7 14 Oeste 24 Oeste 0 984.3 0.5 77
2019-03-13 07:00:00 6.1 13 Oeste 18 Oeste 0 983.9 0.1 77
2019-03-13 06:00:00 7 13 Oeste 18 Oeste 0 983.7 -0.2 71
2019-03-13 05:00:00 7.4 10 Oeste 17 Oeste 0 983.8 0.2 69
2019-03-13 04:00:00 7.5 13 Oeste 22 Oeste 0 983.8 0.4 74
2019-03-13 03:00:00 7.6 12 Oeste 26 Oeste 0 983.9 1 70
2019-03-13 02:00:00 7.9 10 Oeste 30 Noroeste 0 983.6 1.4 73
2019-03-13 01:00:00 8.6 11 Oeste 22 Oeste 0 983.4 2 68
2019-03-13 00:00:00 10.4 6 Sudoeste 18 Noroeste 0 982.9 2.5 68
2019-03-12 23:00:00 11.3 7 Sudoeste 17 Nordeste 0 982.2 2.6 66
2019-03-12 22:00:00 12.8 5 Norte 9 Norte 0 981.4 2.6 66
2019-03-12 21:00:00 12 5 Oeste 9 Oeste 0 980.4 2.1 68
2019-03-12 20:00:00 12.1 5 Este 11 Norte 0 979.6 0.9 59
2019-03-12 19:00:00 13.8 12 Norte 15 Nordeste 0 978.8 -0.4 54
2019-03-12 18:00:00 16.2 -- -- -- -- 0 978.3 -1.8 44
2019-03-12 17:00:00 17.1 10 Este 18 Este 0 978.7 -2.6 39
2019-03-12 16:00:00 16.8 8 Nordeste 18 Este 0 979.2 -3.1 37
2019-03-12 15:00:00 15.4 13 Este 21 Este 0 980.1 -3.2 44
2019-03-12 14:00:00 13.8 12 Nordeste 18 Este 0 981.3 -2.9 50
2019-03-12 13:00:00 12.8 13 Este 24 Este 0 982.3 -2.2 53
2019-03-12 12:00:00 11.1 12 Este 18 Este 0 983.3 -1.2 59
2019-03-12 11:00:00 8.8 7 Nordeste 11 Nordeste 0 984.2 -0.2 68
2019-03-12 10:00:00 6.1 7 Este 11 Este 0 984.5 -0.1 77
2019-03-12 09:00:00 2.7 4 Nordeste 8 Nordeste 0 984.5 -0.3 91
2019-03-12 08:00:00 -0.3 3 Este 5 Este 0 984.4 -0.6 97
2019-03-12 07:00:00 -0.3 0 Calma 4 Noroeste 0 984.6 -0.8 97
2019-03-12 06:00:00 0 0 Calma 4 Norte 0 984.8 -1.1 94
2019-03-12 05:00:00 -0.4 2 Este -- -- 0 985 -1.4 92
2019-03-12 04:00:00 0.5 2 Nordeste 8 Nordeste 0 985.4 -1.3 91
2019-03-12 03:00:00 1.3 2 Nordeste 4 Nordeste 0 985.9 -1.1 89
2019-03-12 02:00:00 3.4 5 Oeste 5 Oeste 0 986.4 -1.1 91
2019-03-12 01:00:00 4 3 Oeste 9 Oeste 0 986.7 -0.9 84
2019-03-12 00:00:00 4.6 5 Oeste 8 Oeste 0 987 -0.5 85
2019-03-11 23:00:00 5.7 2 Oeste 5 Oeste 0 987.5 0 84
2019-03-11 22:00:00 7 4 Oeste 8 Sudeste 0 987.6 0.4 79
2019-03-11 21:00:00 8.3 3 Sudeste 13 Este 0 987.5 0.4 66
2019-03-11 20:00:00 10.6 6 Este 11 Este 0 987.5 0 56
2019-03-11 19:00:00 13.2 8 Norte 13 Norte 0 987.2 -1.1 46
2019-03-11 18:00:00 15.9 2 Noroeste 13 Oeste 0 987.1 -1.9 36
2019-03-11 17:00:00 15.7 7 Oeste 18 Sudoeste 0 987.5 -2.3 38
2019-03-11 16:00:00 15 15 Oeste 21 Oeste 0 988.3 -2.8 39
2019-03-11 15:00:00 14.7 10 Noroeste 22 Sudoeste 0 989 -2.2 40
2019-03-11 14:00:00 13.7 12 Oeste 21 Oeste 0 989.8 -1.8 43
2019-03-11 13:00:00 13.1 13 Oeste 24 Oeste 0 991.1 -0.4 45
2019-03-11 12:00:00 12.9 12 Noroeste 30 Oeste 0 991.2 0 49
2019-03-11 11:00:00 11.9 15 Noroeste 26 Oeste 0 991.6 0.9 52
2019-03-11 10:00:00 10.7 15 Oeste 26 Noroeste 0 991.5 1.4 61
2019-03-11 09:00:00 9.8 11 Oeste 22 Noroeste 0 991.2 1.4 64
2019-03-11 08:00:00 7.9 7 Oeste 17 Noroeste 0 990.7 1.5 71
2019-03-11 07:00:00 8.3 7 Oeste 21 Noroeste 0 990.1 1.1 72
2019-03-11 06:00:00 9.3 10 Oeste 18 Oeste 0 989.8 0.9 71
2019-03-11 05:00:00 9.7 10 Oeste 21 Oeste 0 989.2 0.4 75
2019-03-11 04:00:00 10.4 5 Noroeste 17 Noroeste 0 989 0.3 71
2019-03-11 03:00:00 10.5 5 Oeste 22 Noroeste 0 988.9 0.5 75
2019-03-11 02:00:00 10.8 10 Oeste 17 Noroeste 0 988.8 0.6 74
2019-03-11 01:00:00 11.2 9 Noroeste 18 Noroeste 0 988.7 0.8 72
2019-03-11 00:00:00 11.5 8 Oeste 15 Oeste 0 988.4 0.6 72
2019-03-10 23:00:00 11.6 8 Oeste 17 Oeste 0 988.2 0.7 73
2019-03-10 22:00:00 12.5 8 Noroeste 17 Noroeste 0 987.9 0.9 71
2019-03-10 21:00:00 13.2 5 Noroeste 11 Norte 0 987.8 1.5 69
2019-03-10 20:00:00 13.7 6 Sudoeste 22 Oeste 0 987.5 1.4 69
2019-03-10 19:00:00 14.2 5 Noroeste 24 Norte 0 987 0.6 69
2019-03-10 18:00:00 15.5 10 Noroeste 28 Norte 0 986.3 -0.3 62
2019-03-10 17:00:00 17.8 11 Noroeste 17 Noroeste 0 986.1 -1.3 51
2019-03-10 16:00:00 18.2 7 Oeste 24 Oeste 0 986.4 -1.7 49
2019-03-10 15:00:00 17.4 14 Sudoeste 24 Oeste 0 986.6 -1.4 57
2019-03-10 14:00:00 16.3 9 Oeste 18 Oeste 0 987.4 -0.6 59
2019-03-10 13:00:00 15.5 9 Oeste 17 Oeste 0 988.1 0.3 66
2019-03-10 12:00:00 15.2 5 Noroeste 11 Norte 0 988 0.9 68
2019-03-10 11:00:00 13.7 4 Nordeste 8 Norte 0 988 1.9 71
2019-03-10 10:00:00 13.3 0 Calma 8 Este 0 987.8 2.1 70
2019-03-10 09:00:00 8.2 5 Nordeste 8 Nordeste 0 987.1 1.7 90
2019-03-10 08:00:00 4.4 2 Sur 5 Noroeste 0 986.1 1 98
2019-03-10 07:00:00 3.8 2 Sur 5 Norte 0 985.7 0.5 98
2019-03-10 06:00:00 4.2 3 Nordeste 5 Nordeste 0 985.4 -0.2 97
2019-03-10 05:00:00 5.5 4 Oeste 8 Oeste 0 985.1 -0.7 96
2019-03-10 04:00:00 5.6 0 Calma 4 Sur 0 985.2 -1.2 94
2019-03-10 03:00:00 6 5 Nordeste 8 Norte 0 985.6 -1.3 93
2019-03-10 02:00:00 7.3 6 Oeste 8 Oeste 0 985.8 -1.3 92
2019-03-10 01:00:00 8 3 Sudoeste 5 Oeste 0 986.4 -0.6 90
2019-03-10 00:00:00 8.8 0 Calma 5 Oeste 0 986.9 -0.1 88
2019-03-09 23:00:00 9.8 4 Oeste 9 Sudoeste 0 987.1 0.3 85
2019-03-09 22:00:00 10.7 3 Oeste 5 Oeste 0 987 0.9 84
2019-03-09 21:00:00 12.1 0 Calma 11 Sudeste 0 987 1.3 74
2019-03-09 20:00:00 13.6 6 Sudeste 13 Este 0 986.8 0.8 67
2019-03-09 19:00:00 17.4 4 Sur 9 Oeste 0 986.1 0.1 54
2019-03-09 18:00:00 19.4 6 Oeste 17 Oeste 0 985.7 -0.8 46
2019-03-09 17:00:00 19.8 10 Oeste 17 Oeste 0 986 -1.4 44
2019-03-09 16:00:00 20.2 7 Oeste 18 Oeste 0 986 -1.8 44
2019-03-09 15:00:00 19.4 9 Oeste 22 Oeste 0 986.5 -1.9 47
2019-03-09 14:00:00 19 11 Oeste 21 Oeste 0 987.4 -1.2 47
2019-03-09 13:00:00 18.1 10 Oeste 21 Oeste 0 987.8 -0.6 47
2019-03-09 12:00:00 16.8 13 Oeste 24 Noroeste 0 988.4 0.5 47
2019-03-09 11:00:00 14.6 10 Oeste 28 Oeste 0 988.6 1.4 53
2019-03-09 10:00:00 12.2 15 Oeste 28 Oeste 0 988.4 1.7 59
2019-03-09 09:00:00 8 3 Sudeste 9 Norte 0 987.9 1.6 82
2019-03-09 08:00:00 5.3 4 Noroeste 8 Sudoeste 0 987.2 1.7 90
2019-03-09 07:00:00 5.1 2 Este 5 Noroeste 0 986.7 1.3 93
2019-03-09 06:00:00 4.3 4 Oeste 8 Sudoeste 0 986.3 0.7 94
2019-03-09 05:00:00 3.5 4 Norte 8 Norte 0 985.5 -0.2 93
2019-03-09 04:00:00 4.3 4 Nordeste 5 Nordeste 0 985.4 -0.1 90
2019-03-09 03:00:00 5.1 0 Calma -- -- 0 985.6 0.7 89
2019-03-09 02:00:00 5.6 0 Calma 5 Oeste 0 985.7 1.3 87
2019-03-09 01:00:00 5.4 3 Oeste 5 Sudoeste 0 985.5 1.5 89
2019-03-09 00:00:00 6.2 3 Sudoeste 5 Oeste 0 984.9 1.3 84
2019-03-08 23:00:00 6.8 2 Sur 8 Norte 0 984.4 2 78
2019-03-08 22:00:00 6.4 8 Norte 13 Este 0 984 2.4 79
2019-03-08 21:00:00 8.7 7 Este 17 Este 0 983.6 2.2 70
2019-03-08 20:00:00 10.7 8 Sudeste 11 Sudeste 0 982.4 1.5 59
2019-03-08 19:00:00 13.2 6 Nordeste 8 Nordeste 0 981.6 0.9 51
2019-03-08 18:00:00 13.8 9 Norte 18 Norte 0 981.4 0.7 49
2019-03-08 17:00:00 14.1 8 Oeste 21 Oeste 0 980.9 0.2 47
2019-03-08 16:00:00 15 10 Oeste 24 Oeste 0 980.7 -0.5 45
2019-03-08 15:00:00 14.3 12 Oeste 24 Oeste 0 980.7 -0.7 49
2019-03-08 14:00:00 14.4 9 Oeste 26 Sudoeste 0 980.7 -0.4 45
2019-03-08 13:00:00 13.1 12 Oeste 22 Oeste 0 981.2 0.9 53
2019-03-08 12:00:00 12.6 13 Oeste 24 Oeste 0 981.4 2.5 57
2019-03-08 11:00:00 9.7 12 Oeste 18 Oeste 0 981.1 3.8 74
2019-03-08 10:00:00 9.2 7 Oeste 17 Oeste 0 980.3 4.2 70
2019-03-08 09:00:00 9.2 7 Oeste 24 Oeste 0 978.9 3.3 73
2019-03-08 08:00:00 9 14 Oeste 30 Oeste 0 977.3 2.4 76
2019-03-08 07:00:00 7.8 9 Oeste 15 Oeste 0 976.1 1.5 77
2019-03-08 06:00:00 8.2 8 Sudoeste 11 Sudoeste 0 975.6 0.8 77
2019-03-08 05:00:00 8.9 6 Oeste 18 Oeste 0 974.9 0.2 73
2019-03-08 04:00:00 8.4 12 Oeste 15 Oeste 0 974.6 0.7 75
2019-03-08 03:00:00 7.1 6 Oeste 9 Oeste 0 974.8 1.2 79
2019-03-08 02:00:00 6.3 0 Calma 8 Oeste 0 974.7 1.1 82
2019-03-08 01:00:00 7.3 4 Oeste 8 Este 0 973.9 1.3 76
2019-03-08 00:00:00 7.8 6 Sudoeste 9 Sudoeste 0 973.6 1.4 70
2019-03-07 23:00:00 7.2 6 Oeste 17 Oeste 0 973.6 1.8 72
2019-03-07 22:00:00 6.3 3 Oeste 8 Norte 0 972.6 1.5 77
2019-03-07 21:00:00 7.4 3 Este 13 Norte 0 972.2 1.7 67
2019-03-07 20:00:00 9.7 3 Sur 8 Sudoeste 0 971.8 1.4 58
2019-03-07 19:00:00 12.3 5 Sudoeste 18 Oeste 0 971.1 0.4 45
2019-03-07 18:00:00 13.1 6 Sudoeste 26 Oeste 0 970.5 -0.5 41
2019-03-07 17:00:00 14 16 Oeste 32 Oeste 0 970.4 -1 36
2019-03-07 16:00:00 13.4 15 Oeste 32 Oeste 0 970.7 -1.4 39
2019-03-07 15:00:00 13.4 14 Oeste 26 Oeste 0 971 -1.6 38
2019-03-07 14:00:00 14.2 13 Oeste 28 Noroeste 0 971.4 -1.8 31
2019-03-07 13:00:00 12.9 9 Sudoeste 21 Oeste 0 972.1 -1.2 36
2019-03-07 12:00:00 11.9 12 Oeste 24 Oeste 0 972.6 -0.4 42
2019-03-07 11:00:00 10.3 13 Oeste 21 Oeste 0 973.2 0.9 53
2019-03-07 10:00:00 8.4 14 Oeste 21 Sudoeste 0 973.3 1.5 62
2019-03-07 09:00:00 6.3 13 Oeste 24 Oeste 0 973 2 72
2019-03-07 08:00:00 5.3 14 Sudoeste 18 Oeste 0 972.3 2.1 76
2019-03-07 07:00:00 5.5 10 Sudoeste 15 Oeste 0 971.8 2.1 77
2019-03-07 06:00:00 6.1 8 Oeste 22 Oeste 0 971 1.8 75
2019-03-07 05:00:00 6.9 12 Oeste 24 Oeste 0 970.2 1.9 72
2019-03-07 04:00:00 7.7 17 Oeste 30 Oeste 0 969.7 2.3 71
2019-03-07 03:00:00 8.4 15 Oeste 32 Noroeste 0 969.2 3.3 71
2019-03-07 02:00:00 8.9 16 Oeste 30 Oeste 0 968.3 4.1 71
2019-03-07 01:00:00 9.4 18 Oeste 39 Oeste 0 967.4 5 69
2019-03-07 00:00:00 10.5 18 Oeste 35 Oeste 0 965.9 5.3 61
2019-03-06 23:00:00 10.1 5 Oeste 22 Oeste 0 964.2 4.6 62
2019-03-06 22:00:00 9.2 12 Oeste 30 Oeste 0 962.4 3.7 66
2019-03-06 21:00:00 8.9 7 Oeste 24 Oeste 0 960.6 2.4 66
2019-03-06 20:00:00 10.4 10 Oeste 32 Sudoeste 0 959.6 2.4 57
2019-03-06 19:00:00 11.6 10 Sudoeste 26 Sudoeste 0 958.7 0.5 56
2019-03-06 18:00:00 13.1 10 Oeste 22 Oeste 0 958.2 2 66
2019-03-06 17:00:00 11.5 12 Oeste 52 Oeste 1.1 957.2 -1 73
2019-03-06 16:00:00 12.8 33 Oeste 58 Oeste 2 958.2 -1.1 73
2019-03-06 15:00:00 18.4 17 Sur 32 Sudoeste 0 956.2 -2.9 41
2019-03-06 14:00:00 16 18 Sudoeste 35 Oeste 0 958.2 -0.9 47
2019-03-06 13:00:00 16.2 10 Sudoeste 35 Sur 0 959.3 -0.9 48
2019-03-06 12:00:00 16.5 14 Sur 39 Sudeste 0 959.1 -1.5 49
2019-03-06 11:00:00 14.7 15 Este 33 Sudeste 0 959.1 -1.3 61
2019-03-06 10:00:00 14.3 20 Este 35 Este 0 960.2 0.3 62
2019-03-06 09:00:00 12.2 22 Este 32 Este 0 960.6 0.2 71
2019-03-06 08:00:00 11.7 12 Este 45 Sudeste 0 960.4 -1.3 70
2019-03-06 07:00:00 12.5 32 Sudeste 48 Sudeste 0 959.9 -2.9 67
2019-03-06 06:00:00 11.4 35 Este 48 Este 0 960.4 -4 72
2019-03-06 05:00:00 12 23 Este 35 Este 0 961.7 -4 69
2019-03-06 04:00:00 14.3 17 Este 33 Este 0 962.8 -3.5 60
2019-03-06 03:00:00 14.1 20 Sudeste 33 Sudeste 0 964.4 -2.4 58
2019-03-06 02:00:00 12.5 24 Este 39 Sudeste 0 965.7 -1.6 60
2019-03-06 01:00:00 13 14 Sudeste 28 Este 0 966.3 -1.2 58
2019-03-06 00:00:00 14.2 18 Este 24 Este 0 966.8 -1.2 54
2019-03-05 23:00:00 14.5 17 Sudeste 26 Sudeste 0 967.3 -0.9 50
2019-03-05 22:00:00 15.1 15 Sudeste 35 Sudeste 0 967.5 -0.7 48
2019-03-05 21:00:00 15.3 21 Sudeste 33 Sudeste 0 968 -0.7 45
2019-03-05 20:00:00 12 2 Norte 8 Nordeste 0 968.2 -0.7 60
2019-03-05 19:00:00 15.9 4 Sudoeste 9 Sudoeste 0 968.2 -1.4 43
2019-03-05 18:00:00 18.4 0 Calma 9 Norte 0 968.7 -1.8 34
2019-03-05 17:00:00 18.7 5 Norte 11 Este 0 968.9 -3 33
2019-03-05 16:00:00 17.9 9 Nordeste 18 Nordeste 0 969.6 -3.3 37
2019-03-05 15:00:00 17 8 Este 21 Este 0 970.5 -3.4 42
2019-03-05 14:00:00 15.7 12 Este 22 Este 0 971.9 -2.5 43
2019-03-05 13:00:00 14.4 8 Este 15 Este 0 972.9 -1.9 48
2019-03-05 12:00:00 12.8 9 Sudeste 17 Nordeste 0 973.9 -1 53
2019-03-05 11:00:00 10.7 6 Nordeste 11 Nordeste 0 974.4 -0.2 61
2019-03-05 10:00:00 8.8 3 Este 8 Este 0 974.8 0.2 69
2019-03-05 09:00:00 4.4 0 Calma 5 Oeste 0 974.9 0.4 90
2019-03-05 08:00:00 2.2 2 Noroeste 8 Oeste 0 974.6 -0.1 94
2019-03-05 07:00:00 3.1 2 Sudoeste 8 Oeste 0 974.6 -0.3 92
2019-03-05 06:00:00 4.1 0 Calma 4 Sur 0 974.5 -0.7 88
2019-03-05 05:00:00 4.7 5 Oeste 5 Oeste 0 974.7 -1 87
2019-03-05 04:00:00 5.4 3 Oeste 9 Sudoeste 0 974.9 -1.2 83
2019-03-05 03:00:00 5.4 5 Sudoeste 8 Oeste 0 975.2 -0.9 81
2019-03-05 02:00:00 5.7 4 Oeste 8 Oeste 0 975.7 -0.5 81
2019-03-05 01:00:00 5.5 6 Este 11 Este 0 976.1 0.3 81
2019-03-05 00:00:00 8 7 Sudeste 13 Sudeste 0 976.1 0.7 67
2019-03-04 23:00:00 7.9 8 Este 21 Sudeste 0 976.2 1.4 69
2019-03-04 22:00:00 9.3 15 Sudeste 22 Este 0 975.8 1.8 64
2019-03-04 21:00:00 10.3 17 Sudeste 24 Sudeste 0 975.4 2 61
2019-03-04 20:00:00 11.4 15 Este 21 Este 0 974.8 1.9 58
2019-03-04 19:00:00 13.8 9 Oeste 26 Oeste 0 974 1.3 43
2019-03-04 18:00:00 15.3 16 Oeste 33 Oeste 0 973.4 0.5 35
2019-03-04 17:00:00 16.4 20 Oeste 37 Oeste 0 972.9 -0.6 32
2019-03-04 16:00:00 16.8 24 Oeste 45 Oeste 0 972.7 -1.4 30
2019-03-04 15:00:00 17.2 20 Oeste 42 Oeste 0 972.9 -1 31
2019-03-04 14:00:00 17.1 21 Oeste 41 Noroeste 0 973.5 -0.7 35
2019-03-04 13:00:00 16.6 17 Oeste 52 Oeste 0 974.1 0.1 41
2019-03-04 12:00:00 16 25 Oeste 48 Oeste 0 973.9 0.3 39
2019-03-04 11:00:00 15.1 20 Oeste 46 Oeste 0 974.2 1.4 47
2019-03-04 10:00:00 14.7 23 Oeste 41 Noroeste 0 974 1.3 50
2019-03-04 09:00:00 13.4 14 Oeste 28 Oeste 0 973.6 1.4 60
2019-03-04 08:00:00 12.1 12 Oeste 30 Sudoeste 0 972.8 1 65
2019-03-04 07:00:00 7.5 4 Sudoeste 15 Norte 0 972.7 0.9 77
2019-03-04 06:00:00 6.5 7 Este 11 Norte 0 972.2 -0.1 82
2019-03-04 05:00:00 6.5 7 Noroeste 15 Sudoeste 0 971.8 -0.6 83
2019-03-04 04:00:00 6.4 4 Sudoeste 15 Sudoeste 0 971.8 -1.6 82
2019-03-04 03:00:00 5.1 5 Este 13 Norte 0 972.3 -0.6 88
2019-03-04 02:00:00 4.6 6 Este 11 Este 0 972.4 -0.8 88
2019-03-04 01:00:00 5.2 3 Este 15 Noroeste 0 973.4 0.2 84
2019-03-04 00:00:00 8.3 10 Sur 17 Sudoeste 0 972.9 -0.3 75
2019-03-03 23:00:00 6.2 5 Norte 13 Nordeste 0 973.2 0 84
2019-03-03 22:00:00 7.4 3 Oeste 11 Oeste 0 973.2 0.2 81
2019-03-03 21:00:00 9 4 Oeste 9 Oeste 0 973.2 0.1 75
2019-03-03 20:00:00 11.1 6 Oeste 17 Oeste 0 973.2 -0.6 67
2019-03-03 19:00:00 14.4 5 Sudoeste 9 Nordeste 0 973 -1.6 53
2019-03-03 18:00:00 16.3 7 Nordeste 13 Este 0 973.1 -2.9 48
2019-03-03 17:00:00 15.7 7 Este 18 Este 0 973.8 -3.7 49
2019-03-03 16:00:00 15.9 14 Este 18 Este 0 974.6 -3.8 52
2019-03-03 15:00:00 15.2 13 Este 18 Este 0 976 -3.2 52
2019-03-03 14:00:00 14.6 11 Este 17 Este 0 977.5 -2.5 53
2019-03-03 13:00:00 14.2 10 Este 15 Este 0 978.4 -1.8 53
2019-03-03 12:00:00 12.7 8 Nordeste 11 Nordeste 0 979.2 -0.4 58
2019-03-03 11:00:00 10.9 4 Norte 9 Sudoeste 0 980 0.5 67
2019-03-03 10:00:00 7.1 5 Sudoeste 9 Oeste 0 980.2 0.6 83
2019-03-03 09:00:00 4.1 6 Nordeste 8 Norte 0 979.6 -0.4 94
2019-03-03 08:00:00 2.2 5 Oeste 8 Oeste 0 979.5 -0.2 97
2019-03-03 07:00:00 2 3 Oeste 5 Oeste 0 979.6 -0.3 97
2019-03-03 06:00:00 3.1 -- -- -- -- 0 980 -0.3 97
2019-03-03 05:00:00 3.3 0 Calma 8 Oeste 0 979.7 -0.9 95
2019-03-03 04:00:00 4 6 Oeste 8 Oeste 0 979.9 -0.8 94
2019-03-03 03:00:00 4.3 0 Calma 4 Sur 0 980.3 -0.8 94
2019-03-03 02:00:00 4.2 0 Calma 5 Sudoeste 0 980.6 -0.6 90
2019-03-03 01:00:00 4.8 2 Este 5 Norte 0 980.7 -0.7 90
2019-03-03 00:00:00 7 0 Calma 5 Oeste 0 981.1 -0.4 82
2019-03-02 23:00:00 8.3 3 Oeste 5 Sudoeste 0 981.2 -0.1 81
2019-03-02 22:00:00 9 3 Este 9 Norte 0 981.4 0.8 74
2019-03-02 21:00:00 13.3 12 Sudeste 22 Este 0 981.5 0.8 59
2019-03-02 20:00:00 14.3 17 Sudeste 21 Sudeste 0 981.3 0.5 55
2019-03-02 19:00:00 16.2 11 Este 13 Este 0 980.6 -0.4 44
2019-03-02 18:00:00 20.2 7 Noroeste 15 Oeste 0 980.7 -0.7 31
2019-03-02 17:00:00 20.3 5 Norte 22 Noroeste 0 980.8 -1.1 31
2019-03-02 16:00:00 20 8 Oeste 22 Oeste 0 981 -1.6 32
2019-03-02 15:00:00 19.5 12 Oeste 30 Noroeste 0 981.4 -1.5 32
2019-03-02 14:00:00 18.5 18 Oeste 28 Oeste 0 981.9 -1.2 36
2019-03-02 13:00:00 17.1 18 Oeste 28 Oeste 0 982.6 -0.9 44
2019-03-02 12:00:00 15.8 14 Oeste 26 Oeste 0 982.9 -0.9 50
2019-03-02 11:00:00 13.9 8 Oeste 17 Oeste 0 983.1 0 58
2019-03-02 10:00:00 11.1 7 Oeste 11 Oeste 0 983.5 0.8 65
2019-03-02 09:00:00 8.5 5 Oeste 13 Oeste 0 983.8 1.5 72
2019-03-02 08:00:00 7 9 Oeste 15 Sudoeste 0 983.1 1.1 76
2019-03-02 07:00:00 7.6 10 Sudoeste 13 Sudoeste 0 982.7 0.2 74
2019-03-02 06:00:00 8.2 8 Sudoeste 13 Oeste 0 982.3 -0.6 74
2019-03-02 05:00:00 8.1 5 Oeste 11 Oeste 0 982 -0.9 77
2019-03-02 04:00:00 6.9 9 Sudoeste 13 Sudoeste 0 982.5 -0.1 81
2019-03-02 03:00:00 6.5 6 Oeste 9 Oeste 0 982.9 0.4 84
2019-03-02 02:00:00 7.2 5 Sudoeste 11 Sudoeste 0 982.9 0.6 80
2019-03-02 01:00:00 7.1 7 Sudoeste 9 Sudoeste 0 982.6 0.6 81
2019-03-02 00:00:00 8.1 5 Sudoeste 11 Oeste 0 982.5 0.9 76
2019-03-01 23:00:00 8.6 6 Noroeste 11 Oeste 0 982.3 1.2 73
2019-03-01 22:00:00 9.2 8 Oeste 11 Oeste 0 982 1.7 70
2019-03-01 21:00:00 11.4 5 Oeste 13 Sudoeste 0 981.6 1.9 62
2019-03-01 20:00:00 13.6 10 Oeste 17 Sudoeste 0 981.1 1.3 52
2019-03-01 19:00:00 15 2 Oeste 17 Noroeste 0 980.3 0.3 49
2019-03-01 18:00:00 17.6 9 Norte 18 Norte 0 979.7 -0.7 41
2019-03-01 17:00:00 18.8 10 Noroeste 18 Norte 0 979.8 -1.5 34
2019-03-01 16:00:00 18.7 9 Oeste 28 Oeste 0 980 -2.1 35
2019-03-01 15:00:00 17.7 13 Oeste 28 Oeste 0 980.4 -2.4 39
2019-03-01 14:00:00 16.5 15 Oeste 26 Oeste 0 981.3 -2.3 42
2019-03-01 13:00:00 15.4 18 Oeste 26 Oeste 0 982.1 -2 45
2019-03-01 12:00:00 13.6 12 Oeste 22 Sudoeste 0 982.8 -1.2 55
2019-03-01 11:00:00 10.9 13 Oeste 21 Oeste 0 983.6 -0.4 61
2019-03-01 10:00:00 8.2 13 Oeste 18 Oeste 0 984.1 0.1 70
2019-03-01 09:00:00 6.1 11 Oeste 17 Oeste 0 984 -0.1 76
2019-03-01 08:00:00 4.1 9 Oeste 15 Oeste 0 984 -0.1 83
2019-03-01 07:00:00 4.1 5 Oeste 17 Oeste 0 984 -0.5 84
2019-03-01 06:00:00 4.8 10 Oeste 17 Oeste 0 984.1 -1 83
2019-03-01 05:00:00 4.3 8 Oeste 13 Oeste 0 984.1 -1 83
2019-03-01 04:00:00 5.4 7 Oeste 17 Sudoeste 0 984.5 -1.1 81
2019-03-01 03:00:00 4.7 10 Sudoeste 13 Oeste 0 985.1 -0.7 80
2019-03-01 02:00:00 4.8 8 Oeste 11 Oeste 0 985.1 -1 84
2019-03-01 01:00:00 4.4 3 Oeste -- -- 0 985.6 -0.4 88
2019-03-01 00:00:00 5.3 2 Sudoeste 5 Oeste 0 985.8 0 83
2019-02-28 23:00:00 6.8 4 Sur 8 Sur 0 986.1 0.3 76
2019-02-28 22:00:00 8 3 Sudoeste 8 Oeste 0 986 0.4 71
2019-02-28 21:00:00 10.7 6 Oeste 11 Oeste 0 985.8 0.5 62
2019-02-28 20:00:00 12.6 8 Sudoeste 13 Sudoeste 0 985.8 0.4 54
2019-02-28 19:00:00 14.1 5 Noroeste 22 Norte 0 985.6 0.1 49
2019-02-28 18:00:00 16.3 12 Norte 26 Noroeste 0 985.3 -0.5 36
2019-02-28 17:00:00 17.9 13 Norte 28 Norte 0 985.4 -1 32
2019-02-28 16:00:00 17.9 13 Norte 24 Sudoeste 0 985.5 -1.9 36
2019-02-28 15:00:00 17.8 14 Oeste 22 Sudoeste 0 985.8 -- 45
2019-02-28 14:00:00 16.9 13 Oeste 24 Oeste 0 986.4 -- 46
2019-02-28 13:00:00 15.6 12 Oeste 22 Oeste 0 987.4 -- 51
2019-02-28 12:00:00 -- -- -- -- -- -- -- -- --
2019-02-28 11:00:00 -- -- -- -- -- -- -- -- --
2019-02-28 10:00:00 -- -- -- -- -- -- -- -- --
2019-02-28 09:00:00 8.1 8 Oeste 15 Oeste 0 987.7 0.6 76
2019-02-28 08:00:00 6.1 6 Oeste 13 Sudoeste 0 987.4 0.7 84
2019-02-28 07:00:00 5.7 5 Oeste 8 Sudoeste 0 987.2 0.8 87
2019-02-28 06:00:00 6.2 5 Oeste 13 Sudoeste 0 987.1 0.7 83
2019-02-28 05:00:00 7.3 8 Sudoeste 11 Oeste 0 986.7 0.5 78
2019-02-28 04:00:00 7.8 7 Oeste 11 Oeste 0 986.4 0.7 75
2019-02-28 03:00:00 7.8 10 Oeste 15 Oeste 0 986.4 1.1 75
2019-02-28 02:00:00 8 4 Noroeste 15 Oeste 0 986.2 1.6 72
2019-02-28 01:00:00 8.9 9 Oeste 13 Oeste 0 985.7 1.6 65
2019-02-28 00:00:00 9.9 8 Sudoeste 11 Sudoeste 0 985.3 2.3 60
2019-02-27 23:00:00 11.7 9 Sudoeste 13 Sudoeste 0 984.6 1.9 50
2019-02-27 22:00:00 10.6 6 Oeste 17 Sudoeste 0 984.1 1.8 63
2019-02-27 21:00:00 12.1 4 Oeste 8 Sudoeste 0 983 1 61
2019-02-27 20:00:00 13.3 8 Sudoeste 11 Oeste 0 982.7 0.6 54
2019-02-27 19:00:00 17.2 5 Sudoeste -- -- 0 982.3 0.3 40
2019-02-27 18:00:00 22.7 3 Sudeste 9 Este 0 982 -0.3 27
2019-02-27 17:00:00 22.8 3 Sudeste 13 Este 0 982.1 -1.1 25
2019-02-27 16:00:00 22.3 4 Sudeste 13 Este 0 982 -2.3 27
2019-02-27 15:00:00 21.4 6 Este 13 Este 0 982.3 -2.6 28
2019-02-27 14:00:00 19.8 5 Este 11 Sudeste 0 983.2 -2.3 31
2019-02-27 13:00:00 17.5 5 Este 13 Este 0 984.3 -1.4 34
2019-02-27 12:00:00 15.5 3 Este 9 Noroeste 0 984.9 -0.8 43
2019-02-27 11:00:00 12.4 6 Oeste 9 Oeste 0 985.5 0.4 56
2019-02-27 10:00:00 8.4 5 Sudoeste 13 Oeste 0 985.7 0.8 72
2019-02-27 09:00:00 4.1 5 Sudoeste 9 Sudoeste 0 985.7 0.8 90
2019-02-27 08:00:00 1.7 6 Sudoeste 9 Sudoeste 0 985.1 0.3 95
2019-02-27 07:00:00 3 6 Oeste 11 Oeste 0 984.9 0.2 90
2019-02-27 06:00:00 2.5 4 Sudoeste 8 Sudoeste 0 984.9 -0.3 94
2019-02-27 05:00:00 1.9 0 Calma 8 Sudoeste 0 984.8 -0.6 92
2019-02-27 04:00:00 3.7 5 Sudoeste 8 Oeste 0 984.7 -0.9 91
2019-02-27 03:00:00 3.9 5 Sudoeste -- -- 0 985.2 -0.4 91
2019-02-27 02:00:00 3.9 3 Nordeste 4 Norte 0 985.4 -0.1 87
2019-02-27 01:00:00 5.1 0 Calma -- -- 0 985.6 0.1 87
2019-02-27 00:00:00 6.1 2 Norte 5 Oeste 0 985.6 0.4 81
2019-02-26 23:00:00 8.1 3 Noroeste 9 Sudoeste 0 985.5 0.4 75
2019-02-26 22:00:00 9.5 3 Nordeste 11 Este 0 985.5 0.9 64
2019-02-26 21:00:00 10.4 7 Este 15 Nordeste 0 985.2 1.1 59
2019-02-26 20:00:00 13.2 10 Este 22 Este 0 985.1 0.7 50
2019-02-26 19:00:00 16.7 17 Este 26 Este 0 984.6 0.2 41
2019-02-26 18:00:00 18.8 23 Este 37 Este 0 984.1 -0.9 36
2019-02-26 17:00:00 19.8 26 Este 35 Este 0 984.4 -1.5 35
2019-02-26 16:00:00 19.2 28 Este 39 Este 0 984.4 -2.7 39
2019-02-26 15:00:00 18.7 28 Este 33 Este 0 985 -3.2 42
2019-02-26 14:00:00 17.8 22 Este 32 Este 0 985.9 -2.5 46
2019-02-26 13:00:00 15.2 16 Este 33 Este 0 987.1 -1.1 55
2019-02-26 12:00:00 12.7 23 Este 30 Este 0 988.2 0 62
2019-02-26 11:00:00 9.8 13 Este 17 Este 0 988.4 0.9 71
2019-02-26 10:00:00 5.8 5 Oeste 8 Sudoeste 0 988.2 1 90
2019-02-26 09:00:00 1.6 3 Oeste 5 Oeste 0 988.2 1.2 98
2019-02-26 08:00:00 0.7 3 Oeste -- -- 0 987.5 0.6 98
2019-02-26 07:00:00 1.1 3 Oeste 5 Oeste 0 987.2 0 98
2019-02-26 06:00:00 0.9 2 Oeste 4 Oeste 0 987 -0.6 98
2019-02-26 05:00:00 1.3 0 Calma -- -- 0 986.9 -0.6 97
2019-02-26 04:00:00 1.8 2 Oeste 4 Sudoeste 0 987.2 -0.3 96
2019-02-26 03:00:00 2.5 0 Calma 4 Oeste 0 987.6 0.1 95
2019-02-26 02:00:00 3.1 0 Calma 4 Noroeste 0 987.5 0.2 93
2019-02-26 01:00:00 4.2 0 Calma -- -- 0 987.5 0.2 93
2019-02-26 00:00:00 4.9 0 Calma -- -- 0 987.5 0.6 91
2019-02-25 23:00:00 5.6 0 Calma 4 Este 0 987.3 0.5 87
2019-02-25 22:00:00 7.4 -- -- -- -- 0 987.3 0.6 82
2019-02-25 21:00:00 8.5 3 Nordeste 4 Este 0 986.9 0.7 72
2019-02-25 20:00:00 11 0 Calma 5 Este 0 986.8 0.5 66
2019-02-25 19:00:00 13.5 2 Este 13 Este 0 986.7 0.1 57
2019-02-25 18:00:00 17.3 11 Este 13 Este 0 986.2 -1.1 45
2019-02-25 17:00:00 18.1 9 Este 13 Este 0 986.3 -1.7 40
2019-02-25 16:00:00 17.9 10 Este 15 Este 0 986.6 -2.3 40
2019-02-25 15:00:00 17.1 9 Este 17 Este 0 987.3 -2.1 44
2019-02-25 14:00:00 16.2 8 Este 17 Este 0 988 -1.7 47
2019-02-25 13:00:00 14.8 9 Este 15 Este 0 988.9 -0.8 51
2019-02-25 12:00:00 12.9 7 Norte 15 Norte 0 989.4 -0.1 55
2019-02-25 11:00:00 10.1 5 Oeste 8 Oeste 0 989.7 0.7 66
2019-02-25 10:00:00 6.5 4 Oeste 8 Sudoeste 0 989.7 0.9 81
2019-02-25 09:00:00 3 4 Oeste 5 Oeste 0 989.5 0.4 94
2019-02-25 08:00:00 2.3 4 Oeste 9 Oeste 0 989 -0.3 92
2019-02-25 07:00:00 1.9 5 Sudoeste 8 Sudoeste 0 988.8 -0.7 93
2019-02-25 06:00:00 2.5 5 Oeste -- -- 0 989.1 -0.7 93
2019-02-25 05:00:00 2.7 5 Sudoeste 8 Sudoeste 0 989.3 -0.7 93
2019-02-25 04:00:00 2.7 4 Sudoeste 8 Sudoeste 0 989.5 -0.5 95
2019-02-25 03:00:00 3 4 Oeste 5 Oeste 0 989.8 0.1 95
2019-02-25 02:00:00 3 3 Oeste 5 Oeste 0 990 0.5 93
2019-02-25 01:00:00 3.8 0 Calma 5 Oeste 0 990 0.7 91
2019-02-25 00:00:00 4.3 0 Calma 5 Oeste 0 989.7 0.8 89
2019-02-24 23:00:00 5.1 0 Calma 5 Oeste 0 989.5 0.6 86
2019-02-24 22:00:00 6.8 3 Oeste 4 Oeste 0 989.3 1 83
2019-02-24 21:00:00 8.3 0 Calma 4 Norte 0 988.9 1.1 73
2019-02-24 20:00:00 10.7 0 Calma 5 Norte 0 988.9 1.5 63
2019-02-24 19:00:00 13.7 3 Este 13 Este 0 988.3 0.7 52
2019-02-24 18:00:00 16.9 10 Este 18 Este 0 987.8 -0.3 43
2019-02-24 17:00:00 17.8 13 Este 18 Este 0 987.4 -1.3 39
2019-02-24 16:00:00 17.4 14 Este 21 Este 0 987.6 -1.7 39
2019-02-24 15:00:00 16.7 11 Este 24 Este 0 988.1 -1.4 40
2019-02-24 14:00:00 16.3 13 Este 22 Este 0 988.7 -0.6 44
2019-02-24 13:00:00 15 17 Este 24 Este 0 989.3 0.2 47
2019-02-24 12:00:00 13.7 12 Este 15 Este 0 989.5 0.6 50
2019-02-24 11:00:00 11.5 4 Nordeste 9 Este 0 989.3 1.1 53
2019-02-24 10:00:00 8.3 5 Sudoeste 9 Sudoeste 0 989.1 1.4 64
2019-02-24 09:00:00 5.4 4 Sudoeste 9 Sudoeste 0 988.9 1.6 75
2019-02-24 08:00:00 2.5 3 Sudeste 8 Sudoeste 0 988.2 1 85
2019-02-24 07:00:00 3.9 6 Oeste 11 Sudoeste 0 987.7 0.4 85
2019-02-24 06:00:00 5.8 10 Sudoeste 11 Sudoeste 0 987.3 -0.5 67
2019-02-24 05:00:00 6.8 8 Sudoeste 11 Oeste 0 987.2 -0.7 66
2019-02-24 04:00:00 6.6 8 Oeste 13 Oeste 0 987.3 -0.7 72
2019-02-24 03:00:00 7.3 5 Oeste 13 Oeste 0 987.8 -0.2 71
2019-02-24 02:00:00 8.8 6 Oeste 21 Oeste 0 987.9 0.2 64
2019-02-24 01:00:00 8.9 9 Oeste 18 Oeste 0 988 0.8 64
2019-02-24 00:00:00 10.1 10 Oeste 17 Sudoeste 0 988 1.6 57
2019-02-23 23:00:00 12 12 Oeste 22 Oeste 0 987.7 1.7 49
2019-02-23 22:00:00 12.5 12 Oeste 21 Oeste 0 987.2 1.7 45
2019-02-23 21:00:00 14 10 Oeste 18 Oeste 0 986.4 1.4 39
2019-02-23 20:00:00 15.3 12 Sudoeste 18 Oeste 0 986 1 33
2019-02-23 19:00:00 16.9 13 Oeste 28 Noroeste 0 985.5 0.5 29
2019-02-23 18:00:00 19 14 Noroeste 28 Oeste 0 985 -0.1 25
2019-02-23 17:00:00 20.1 14 Noroeste 30 Oeste 0 985 -0.5 27
2019-02-23 16:00:00 20.4 15 Noroeste 32 Oeste 0 985 -0.9 25
2019-02-23 15:00:00 21.4 17 Oeste 35 Oeste 0 985.1 -1.4 23
2019-02-23 14:00:00 20.5 21 Oeste 33 Sudoeste 0 985.5 -1.1 23
2019-02-23 13:00:00 19.4 22 Oeste 39 Sudoeste 0 985.9 -0.7 25
2019-02-23 12:00:00 17.1 21 Oeste 35 Oeste 0 986.5 0.1 34
2019-02-23 11:00:00 14.6 19 Oeste 32 Oeste 0 986.6 0.9 36
2019-02-23 10:00:00 12 18 Oeste 30 Oeste 0 986.6 1.4 42
2019-02-23 09:00:00 9.5 17 Oeste 28 Oeste 0 986.4 1.4 47
2019-02-23 08:00:00 7.8 18 Oeste 30 Oeste 0 985.7 0.7 53
2019-02-23 07:00:00 7.4 17 Oeste 24 Oeste 0 985.2 0.1 53
2019-02-23 06:00:00 7.3 15 Oeste 26 Oeste 0 985 -0.5 52
2019-02-23 05:00:00 6.2 12 Oeste 17 Oeste 0 985 -0.8 57
2019-02-23 04:00:00 6.7 12 Oeste 18 Sudoeste 0 985.1 -0.7 57
2019-02-23 03:00:00 6.7 11 Oeste 21 Oeste 0 985.5 -0.5 59
2019-02-23 02:00:00 8.2 12 Oeste 22 Oeste 0 985.8 -0.2 55
2019-02-23 01:00:00 8.8 15 Oeste 26 Oeste 0 985.8 -0.2 57
2019-02-23 00:00:00 8.2 10 Oeste 15 Oeste 0 986 -0.1 61
2019-02-22 23:00:00 7.7 8 Oeste 11 Oeste 0 986 0.1 67
2019-02-22 22:00:00 7.3 2 Sudoeste 11 Sudoeste 0 986 0.5 69
2019-02-22 21:00:00 9.9 10 Sudoeste 11 Sudoeste 0 986.1 1 55
2019-02-22 20:00:00 12.3 5 Oeste 8 Oeste 0 985.9 0.6 45
2019-02-22 19:00:00 16.1 7 Sudoeste 11 Sudoeste 0 985.5 0.1 31
2019-02-22 18:00:00 19.9 8 Sudoeste 13 Oeste 0 985.1 -0.7 24
2019-02-22 17:00:00 20.5 9 Oeste 17 Oeste 0 985.3 -1.1 23
2019-02-22 16:00:00 20.6 8 Oeste 11 Oeste 0 985.4 -2 21
2019-02-22 15:00:00 19.6 5 Oeste 9 Noroeste 0 985.8 -2.6 27
2019-02-22 14:00:00 17.8 3 Oeste 9 Oeste 0 986.4 -2.7 32
2019-02-22 13:00:00 15.8 3 Oeste 11 Oeste 0 987.4 -2.3 44
2019-02-22 12:00:00 12.5 6 Oeste 13 Oeste 0 988.4 -1.2 54
2019-02-22 11:00:00 9.5 9 Oeste 13 Oeste 0 989.1 0.1 66
2019-02-22 10:00:00 6.3 6 Oeste 11 Oeste 0 989.7 1.1 85
2019-02-22 09:00:00 2.3 5 Sudoeste 9 Oeste 0 989.6 0.8 97
2019-02-22 08:00:00 1.1 4 Oeste 11 Oeste 0 989 0.4 96
2019-02-22 07:00:00 1.3 9 Sudoeste 11 Sudoeste 0 988.6 0 97
2019-02-22 06:00:00 1.1 4 Oeste 8 Oeste 0 988.8 -0.1 96
2019-02-22 05:00:00 1.5 3 Sudoeste 5 Sudoeste 0 988.6 -0.3 96
2019-02-22 04:00:00 2.6 7 Oeste 11 Oeste 0 988.6 0.1 95
2019-02-22 03:00:00 2.4 5 Sudoeste 9 Oeste 0 988.9 0.9 96
2019-02-22 02:00:00 3 7 Sudoeste 9 Sudoeste 0 988.9 1.1 96
2019-02-22 01:00:00 3.2 5 Sudoeste 5 Sudoeste 0 988.5 1.2 95
2019-02-22 00:00:00 4 3 Sudoeste 5 Oeste 0 988 1.3 94
2019-02-21 23:00:00 5 0 Calma 4 Oeste 0 987.8 1.6 92
2019-02-21 22:00:00 6.2 0 Calma 4 Sur 0 987.3 1.9 88
2019-02-21 21:00:00 6.9 0 Calma 8 Oeste 0 986.7 1.7 84
2019-02-21 20:00:00 9.4 2 Este 5 Norte 0 986.2 1.3 76
2019-02-21 19:00:00 11.9 3 Oeste -- -- 0 985.4 0.5 66
2019-02-21 18:00:00 14.8 6 Este 15 Este 0 985 0 58
2019-02-21 17:00:00 15 13 Este 21 Este 0 984.9 -0.5 56
2019-02-21 16:00:00 14.5 14 Este 21 Este 0 984.9 -1.3 57
2019-02-21 15:00:00 13.6 10 Este 21 Sudeste 0 985 -1.5 60
2019-02-21 14:00:00 12.3 14 Este 24 Este 0 985.4 -1.1 66
2019-02-21 13:00:00 11 17 Este 26 Este 0 986.2 -0.1 70
2019-02-21 12:00:00 8.9 13 Este 17 Este 0 986.5 0.4 79
2019-02-21 11:00:00 5.7 6 Nordeste 8 Este 0 986.5 1.3 90
2019-02-21 10:00:00 2 3 Nordeste 4 Este 0 986.3 1.5 98
2019-02-21 09:00:00 -0.5 4 Oeste 5 Oeste 0 986.1 1.5 99
2019-02-21 08:00:00 -1.9 2 Este 4 Este 0 985.2 0.9 99
2019-02-21 07:00:00 -1.5 0 Calma 5 Sudoeste 0 984.8 0.5 98
2019-02-21 06:00:00 0 3 Oeste -- -- 0 984.6 0.3 99
2019-02-21 05:00:00 -0.2 2 Oeste 4 Oeste 0 984.3 0.2 99
2019-02-21 04:00:00 0.6 0 Calma 5 Oeste 0 984.3 0.6 98
2019-02-21 03:00:00 0.1 0 Calma 4 Noroeste 0 984.3 1 98
2019-02-21 02:00:00 0.4 0 Calma 5 Este 0 984.1 0.9 97
2019-02-21 01:00:00 1.4 0 Calma -- -- 0 983.7 1 97
2019-02-21 00:00:00 2.7 5 Oeste 5 Oeste 0 983.3 1.2 96
2019-02-20 23:00:00 2.5 0 Calma 9 Oeste 0 983.2 1.3 95
2019-02-20 22:00:00 3.8 4 Oeste 9 Oeste 0 982.7 1.2 94
2019-02-20 21:00:00 4.3 3 Nordeste 9 Oeste 0 982.1 0.9 91
2019-02-20 20:00:00 5.7 0 Calma 5 Noroeste 0 981.9 0.7 89
2019-02-20 19:00:00 8.1 4 Sudoeste 9 Sur 0 981.5 0.2 78
2019-02-20 18:00:00 9.1 0 Calma 11 Sur 0 981.2 -0.3 75
2019-02-20 17:00:00 9.4 7 Sudeste 13 Este 0 981.2 -0.7 74
2019-02-20 16:00:00 9.7 6 Sudeste 17 Este 0 981.3 -1.1 73
2019-02-20 15:00:00 8.8 13 Este 21 Este 0 981.5 -1 78
2019-02-20 14:00:00 7.9 10 Este 21 Este 0 981.9 -0.4 81
2019-02-20 13:00:00 7 13 Este 17 Este 0 982.4 0.6 86
2019-02-20 12:00:00 6.5 12 Este 17 Este 0 982.5 1.2 88
2019-02-20 11:00:00 5.3 8 Este 11 Este 0 982.3 2.1 95
2019-02-20 10:00:00 3 2 Norte 4 Norte 0 981.8 2.2 98
2019-02-20 09:00:00 0.7 2 Oeste 5 Norte 0 981.3 1.8 98
2019-02-20 08:00:00 -0.3 0 Calma 4 Noroeste 0 980.2 1 98
2019-02-20 07:00:00 0 2 Norte 4 Noroeste 0 979.6 0.3 98
2019-02-20 06:00:00 0.6 3 Oeste 8 Oeste 0 979.5 0.1 98
2019-02-20 05:00:00 1.4 3 Oeste 8 Oeste 0 979.2 -0.1 97
2019-02-20 04:00:00 0.2 0 Calma 5 Oeste 0 979.3 0.1 96
2019-02-20 03:00:00 1.2 0 Calma 8 Noroeste 0 979.4 0.6 96
2019-02-20 02:00:00 1.6 0 Calma 5 Noroeste 0 979.3 0.6 96
2019-02-20 01:00:00 3.1 2 Oeste 5 Oeste 0 979.2 1 96
2019-02-20 00:00:00 3.7 0 Calma 8 Oeste 0 978.8 1 94